Anshan, China
Current Conditions -  °F | °C
As of 12:00 PM on Friday 28 Nov 2014 (Local Time) from ZYTX Reporting Station
Clear Clear  
Wind Chill: 34°   Ceiling: Unl
Heat Index: 39°   Visibility: 4mi
Dew Point: 10°   Wind: 7mph
Humidity: 31%   Direction: 330°NNW
Pressure: 30.06"   Gusts: NA
Location:  41.12°N, 122.95°E
Report Text: ZYTX 280400Z 33003MPS 290V360 7000 NSC 04/M12 Q1018 NOSIG
Loading
Personal Weather Stations






























Interactive Weather Map New forecast layout! Learn more

10-Day Weather Forecast

Advertisements
Track Severe Weather on mobile